createdAt,value
2022-11-04T00:02:58.546Z,13.80
2022-11-04T00:08:20.667Z,13.80
2022-11-04T00:13:23.801Z,13.80
2022-11-04T00:18:26.917Z,13.70
2022-11-04T00:23:48.968Z,13.60
2022-11-04T00:28:54.259Z,13.60
2022-11-04T00:34:00.086Z,13.60
2022-11-04T00:39:04.798Z,13.50
2022-11-04T00:44:08.039Z,13.50
2022-11-04T00:49:11.204Z,13.50
2022-11-04T00:54:15.891Z,13.60
2022-11-04T00:59:19.002Z,13.60
2022-11-04T01:04:22.106Z,13.60
2022-11-04T01:09:26.614Z,13.60
2022-11-04T01:14:29.744Z,13.70
2022-11-04T01:19:32.920Z,13.60
2022-11-04T01:24:37.485Z,13.60
2022-11-04T01:29:40.888Z,13.60
2022-11-04T01:34:44.055Z,13.60
2022-11-04T01:39:48.593Z,13.70
2022-11-04T01:44:54.521Z,13.70
2022-11-04T01:50:01.580Z,13.70
2022-11-04T01:55:10.947Z,13.70
2022-11-04T02:00:15.603Z,13.80
2022-11-04T02:05:18.919Z,13.80
2022-11-04T02:10:27.048Z,13.80
2022-11-04T02:15:38.471Z,13.80
2022-11-04T02:21:12.900Z,13.80
2022-11-04T02:27:03.738Z,13.80
2022-11-04T02:32:18.076Z,13.80
2022-11-04T02:37:38.479Z,13.90
2022-11-04T02:42:47.223Z,13.90
2022-11-04T02:47:59.182Z,13.90
2022-11-04T02:53:07.036Z,13.90
2022-11-04T02:58:15.843Z,13.90
2022-11-04T03:03:25.983Z,13.90
2022-11-04T03:08:34.264Z,13.90
2022-11-04T03:13:43.404Z,14.00
2022-11-04T03:18:56.001Z,14.00
2022-11-04T03:23:59.327Z,14.00
2022-11-04T03:29:17.083Z,14.00
2022-11-04T03:34:21.639Z,14.00
2022-11-04T03:39:25.010Z,13.90
2022-11-04T03:44:29.277Z,14.00
2022-11-04T03:49:33.821Z,14.00
2022-11-04T03:54:37.239Z,14.00
2022-11-04T04:00:03.515Z,14.00
2022-11-04T04:05:17.645Z,14.00
2022-11-04T04:10:42.119Z,14.00
2022-11-04T04:15:50.651Z,14.00
2022-11-04T04:20:57.936Z,14.00
2022-11-04T04:26:22.035Z,14.00
2022-11-04T04:31:45.553Z,14.10
2022-11-04T04:36:54.394Z,14.10
2022-11-04T04:42:15.174Z,14.10
2022-11-04T04:47:20.683Z,14.10
2022-11-04T04:52:28.356Z,14.10
2022-11-04T04:57:31.456Z,14.10
2022-11-04T05:02:34.841Z,14.00
2022-11-04T05:07:39.364Z,14.00
2022-11-04T05:13:00.556Z,13.90
2022-11-04T05:18:04.358Z,13.90
2022-11-04T05:23:12.092Z,13.90
2022-11-04T05:28:15.248Z,13.90
2022-11-04T05:33:18.346Z,13.80
2022-11-04T05:38:22.897Z,13.80
2022-11-04T05:43:26.041Z,13.80
2022-11-04T05:48:29.751Z,13.70
2022-11-04T05:53:34.258Z,13.70
2022-11-04T05:58:37.433Z,13.70
2022-11-04T06:03:40.516Z,13.70
2022-11-04T06:08:45.387Z,13.60
2022-11-04T06:13:48.785Z,13.60
2022-11-04T06:18:52.158Z,13.60
2022-11-04T06:23:58.406Z,13.60
2022-11-04T06:29:01.511Z,13.60
2022-11-04T06:34:04.731Z,13.50
2022-11-04T06:39:09.488Z,13.50
2022-11-04T06:44:12.603Z,13.40
2022-11-04T06:49:17.806Z,13.40
2022-11-04T06:54:22.289Z,13.40
2022-11-04T06:59:25.465Z,13.40
2022-11-04T07:04:28.587Z,13.40
2022-11-04T07:09:33.925Z,13.40
2022-11-04T07:14:37.089Z,13.40
2022-11-04T07:19:40.276Z,13.30
2022-11-04T07:24:45.897Z,13.30
2022-11-04T07:29:49.025Z,13.30
2022-11-04T07:34:52.175Z,13.30
2022-11-04T07:39:56.634Z,13.30
2022-11-04T07:44:59.721Z,13.30
2022-11-04T07:50:07.996Z,13.20
2022-11-04T07:55:18.535Z,13.10
2022-11-04T08:00:22.295Z,13.10
2022-11-04T08:05:25.586Z,13.10
2022-11-04T08:10:30.278Z,13.10
2022-11-04T08:15:33.442Z,13.10
2022-11-04T08:20:36.608Z,13.10
2022-11-04T08:25:41.169Z,13.00
2022-11-04T08:30:52.715Z,12.90
2022-11-04T08:35:59.670Z,13.00
2022-11-04T08:41:06.514Z,12.90
2022-11-04T08:46:11.436Z,12.90
2022-11-04T08:51:17.084Z,12.90
2022-11-04T08:56:23.472Z,12.90
2022-11-04T09:01:31.330Z,13.00
2022-11-04T09:06:41.074Z,13.00
2022-11-04T09:11:46.700Z,13.00
2022-11-04T09:16:49.969Z,13.10
2022-11-04T09:21:53.719Z,13.10
2022-11-04T09:26:58.311Z,13.20
2022-11-04T09:32:01.543Z,13.30
2022-11-04T09:37:04.828Z,13.40
2022-11-04T09:42:25.650Z,13.50
2022-11-04T09:47:31.572Z,13.60
2022-11-04T09:52:38.674Z,13.60
2022-11-04T09:57:44.669Z,13.70
2022-11-04T10:03:06.180Z,13.70
2022-11-04T10:08:42.988Z,13.70
2022-11-04T10:13:59.812Z,13.70
2022-11-04T10:19:28.648Z,13.70
2022-11-04T10:24:43.098Z,13.70
2022-11-04T10:29:53.745Z,13.70
2022-11-04T10:35:00.174Z,13.70
2022-11-04T10:40:18.402Z,13.70
2022-11-04T10:45:27.474Z,13.70
2022-11-04T10:50:37.688Z,13.80
2022-11-04T10:55:47.475Z,13.80
2022-11-04T11:00:52.937Z,13.80
2022-11-04T11:06:12.027Z,13.80
2022-11-04T11:11:16.647Z,13.80
2022-11-04T11:16:26.742Z,13.80
2022-11-04T11:21:44.222Z,13.90
2022-11-04T11:26:49.865Z,13.90
2022-11-04T11:31:55.834Z,14.00
2022-11-04T11:36:59.683Z,14.00
2022-11-04T11:42:06.265Z,14.10
2022-11-04T11:47:22.720Z,14.10
2022-11-04T11:52:33.282Z,14.20
2022-11-04T11:57:45.290Z,14.20
2022-11-04T12:02:56.347Z,14.10
2022-11-04T12:13:38.520Z,14.20
2022-11-04T12:19:05.852Z,14.30
2022-11-04T12:24:22.635Z,14.30
2022-11-04T12:29:42.210Z,14.30
2022-11-04T12:34:57.603Z,14.30
2022-11-04T12:40:18.046Z,14.40
2022-11-04T12:45:34.086Z,14.40
2022-11-04T12:51:00.113Z,14.30
2022-11-04T12:56:10.367Z,14.40
2022-11-04T13:01:18.108Z,14.40
2022-11-04T13:06:28.351Z,14.40
2022-11-04T13:11:35.703Z,14.50
2022-11-04T13:16:43.006Z,14.50
2022-11-04T13:21:48.641Z,14.50
2022-11-04T13:26:53.331Z,14.50
2022-11-04T13:32:01.364Z,14.50
2022-11-04T13:37:16.061Z,14.40
2022-11-04T13:42:45.514Z,14.30
2022-11-04T13:47:51.648Z,14.30
2022-11-04T13:52:56.257Z,14.20
2022-11-04T13:58:02.321Z,14.20
2022-11-04T14:03:35.151Z,14.20
2022-11-04T14:09:14.514Z,14.30
2022-11-04T14:14:20.794Z,14.30
2022-11-04T14:20:00.919Z,14.20
2022-11-04T14:25:21.533Z,14.20
2022-11-04T14:30:35.276Z,14.10
2022-11-04T14:35:38.701Z,14.10
2022-11-04T14:40:53.698Z,14.10
2022-11-04T14:45:58.382Z,14.00
2022-11-04T14:51:01.649Z,14.10
2022-11-04T14:56:13.064Z,14.10
2022-11-04T15:01:19.014Z,14.00
2022-11-04T15:06:35.320Z,14.00
2022-11-04T15:12:04.686Z,14.00
2022-11-04T15:17:07.819Z,14.00
2022-11-04T15:22:15.390Z,14.10
2022-11-04T15:27:24.608Z,14.10
2022-11-04T15:32:28.367Z,14.00
2022-11-04T15:37:32.068Z,14.10
2022-11-04T15:42:42.939Z,14.20
2022-11-04T15:47:46.087Z,14.20
2022-11-04T15:52:52.957Z,14.20
2022-11-04T15:57:57.705Z,14.20
2022-11-04T16:03:02.000Z,14.20
2022-11-04T16:08:22.139Z,14.10
2022-11-04T16:13:26.892Z,14.10
2022-11-04T16:18:36.075Z,14.20
2022-11-04T16:23:45.978Z,14.20
2022-11-04T16:28:55.355Z,14.20
2022-11-04T16:33:58.698Z,14.20
2022-11-04T16:39:04.715Z,14.20
2022-11-04T16:44:19.428Z,14.20
2022-11-04T16:49:22.932Z,14.20
2022-11-04T16:54:27.533Z,14.20
2022-11-04T16:59:31.973Z,14.20
2022-11-04T17:04:35.072Z,14.20
2022-11-04T17:09:38.164Z,14.10
2022-11-04T17:14:42.704Z,14.10
2022-11-04T17:19:45.767Z,14.10
2022-11-04T17:24:49.030Z,14.00
2022-11-04T17:29:53.597Z,14.00
2022-11-04T17:34:56.805Z,13.90
2022-11-04T17:40:00.010Z,13.90
2022-11-04T17:45:05.266Z,13.90
2022-11-04T17:50:09.345Z,13.80
2022-11-04T17:55:16.753Z,13.70
2022-11-04T18:00:24.387Z,13.70
2022-11-04T18:05:27.495Z,13.70
2022-11-04T18:10:30.571Z,13.60
2022-11-04T18:15:35.119Z,13.50
2022-11-04T18:20:38.201Z,13.40
2022-11-04T18:25:42.928Z,13.30
2022-11-04T18:30:49.142Z,13.20
2022-11-04T18:35:52.211Z,13.20
2022-11-04T18:40:55.410Z,13.10
2022-11-04T18:45:59.915Z,13.00
2022-11-04T18:51:03.300Z,12.90
2022-11-04T18:56:08.210Z,13.00
2022-11-04T19:01:17.156Z,12.90
2022-11-04T19:06:24.863Z,12.90
2022-11-04T19:11:29.825Z,12.90
2022-11-04T19:16:34.647Z,12.70
2022-11-04T19:21:37.748Z,12.70
2022-11-04T19:26:42.048Z,12.60
2022-11-04T19:31:46.538Z,12.60
2022-11-04T19:36:49.668Z,12.50
2022-11-04T19:42:09.998Z,12.60
2022-11-04T19:47:14.570Z,12.60
2022-11-04T19:52:18.547Z,12.60
2022-11-04T19:57:21.854Z,12.60
2022-11-04T20:02:26.495Z,12.60
2022-11-04T20:07:29.761Z,12.60
2022-11-04T20:12:50.181Z,12.60
2022-11-04T20:17:54.688Z,12.60
2022-11-04T20:22:58.084Z,12.60
2022-11-04T20:28:02.386Z,12.50
2022-11-04T20:33:07.363Z,12.50
2022-11-04T20:38:10.747Z,12.50
2022-11-04T20:43:14.146Z,12.50
2022-11-04T20:48:18.727Z,12.50
2022-11-04T20:53:21.999Z,12.40
2022-11-04T20:58:25.108Z,12.30
2022-11-04T21:03:29.914Z,12.30
2022-11-04T21:08:35.351Z,12.30
2022-11-04T21:13:38.477Z,12.20
2022-11-04T21:18:42.992Z,12.10
2022-11-04T21:23:46.737Z,12.00
2022-11-04T21:28:53.796Z,12.00
2022-11-04T21:33:58.777Z,12.00
2022-11-04T21:39:02.090Z,12.00
2022-11-04T21:44:08.269Z,12.00
2022-11-04T21:49:14.435Z,12.00
2022-11-04T21:54:17.680Z,12.00
2022-11-04T21:59:21.055Z,12.00
2022-11-04T22:04:25.786Z,11.90
2022-11-04T22:09:28.867Z,11.90
2022-11-04T22:14:31.932Z,11.90
2022-11-04T22:19:36.485Z,11.90
2022-11-04T22:24:39.555Z,11.90
2022-11-04T22:29:42.690Z,11.80
2022-11-04T22:34:47.330Z,11.70
2022-11-04T22:39:50.400Z,11.70
2022-11-04T22:44:53.481Z,11.60
2022-11-04T22:49:57.979Z,11.60
2022-11-04T22:55:01.164Z,11.40
2022-11-04T23:00:06.076Z,11.30
2022-11-04T23:05:10.879Z,11.30
2022-11-04T23:10:31.433Z,11.20
2022-11-04T23:15:52.175Z,11.10
2022-11-04T23:21:10.561Z,11.10
2022-11-04T23:26:13.852Z,11.00
2022-11-04T23:31:16.924Z,11.00
2022-11-04T23:36:35.257Z,11.00
2022-11-04T23:41:55.647Z,10.90
2022-11-04T23:47:16.245Z,10.80
2022-11-04T23:52:34.565Z,10.70
2022-11-04T23:57:55.185Z,10.60
